createdAt,value
2023-02-07T00:00:00.620Z,-7.5
2023-02-07T00:10:00.575Z,-7.7
2023-02-07T00:20:00.577Z,-7.7
2023-02-07T00:30:00.583Z,-7.6
2023-02-07T00:40:00.838Z,-7.3
2023-02-07T00:50:00.886Z,-7.5
2023-02-07T01:00:01.063Z,-7.9
2023-02-07T01:10:00.952Z,-7.9
2023-02-07T01:20:01.852Z,-8.0
2023-02-07T01:30:00.822Z,-8.1
2023-02-07T01:40:00.830Z,-8.1
2023-02-07T01:50:00.583Z,-8.5
2023-02-07T02:00:00.628Z,-8.8
2023-02-07T02:10:00.579Z,-8.6
2023-02-07T02:20:00.589Z,-8.7
2023-02-07T02:30:00.590Z,-8.4
2023-02-07T02:40:00.586Z,-8.9
2023-02-07T02:50:00.627Z,-9.0
2023-02-07T03:00:00.635Z,-9.1
2023-02-07T03:10:00.838Z,-8.8
2023-02-07T03:20:00.834Z,-9.1
2023-02-07T03:30:00.837Z,-9.0
2023-02-07T03:40:00.846Z,-8.9
2023-02-07T03:50:00.941Z,-9.1
2023-02-07T04:00:00.909Z,-9.2
2023-02-07T04:10:00.663Z,-9.3
2023-02-07T04:20:00.739Z,-9.3
2023-02-07T04:30:00.673Z,-9.5
2023-02-07T04:40:00.601Z,-9.6
2023-02-07T04:50:00.572Z,-9.6
2023-02-07T05:00:00.560Z,-9.4
2023-02-07T05:10:00.605Z,-9.4
2023-02-07T05:20:00.583Z,-9.5
2023-02-07T05:30:00.587Z,-9.2
2023-02-07T05:40:00.769Z,-9.2
2023-02-07T05:50:00.938Z,-8.8
2023-02-07T06:00:00.833Z,-8.5
2023-02-07T06:10:00.861Z,-8.8
2023-02-07T06:20:00.938Z,-8.8
2023-02-07T06:30:00.647Z,-8.6
2023-02-07T06:40:00.906Z,-8.3
2023-02-07T06:50:00.590Z,-7.8
2023-02-07T07:00:00.560Z,-7.1
2023-02-07T07:10:00.647Z,-6.7
2023-02-07T07:20:00.718Z,-6.3
2023-02-07T07:30:00.906Z,-5.6
2023-02-07T07:40:00.713Z,-4.8
2023-02-07T07:50:00.872Z,-4.2
2023-02-07T08:00:00.929Z,-3.4
2023-02-07T08:10:00.753Z,-2.5
2023-02-07T08:20:00.928Z,-1.8
2023-02-07T08:30:00.604Z,-1.1
2023-02-07T08:40:00.609Z,-1.1
2023-02-07T08:50:00.607Z,-1.1
2023-02-07T09:00:00.589Z,-1.2
2023-02-07T09:10:00.577Z,-0.3
2023-02-07T09:20:00.567Z,-0.1
2023-02-07T09:30:00.606Z,0.0
2023-02-07T09:40:00.669Z,0.8
2023-02-07T09:50:00.661Z,1.5
2023-02-07T10:00:00.880Z,2.4
2023-02-07T10:10:00.850Z,2.0
2023-02-07T10:20:01.037Z,3.0
2023-02-07T10:30:01.048Z,2.5
2023-02-07T10:40:00.985Z,1.1
2023-02-07T10:50:01.086Z,3.0
2023-02-07T11:00:00.900Z,3.8
2023-02-07T11:10:00.608Z,4.4
2023-02-07T11:20:00.562Z,3.3
2023-02-07T11:30:00.561Z,4.7
2023-02-07T11:40:00.621Z,5.2
2023-02-07T11:50:00.554Z,5.1
2023-02-07T12:00:00.618Z,5.1
2023-02-07T12:10:00.578Z,5.5
2023-02-07T12:20:03.087Z,4.9
2023-02-07T12:30:00.577Z,4.6
2023-02-07T12:40:00.680Z,5.0
2023-02-07T12:50:00.867Z,4.7
2023-02-07T13:00:00.598Z,4.3
2023-02-07T13:10:00.563Z,4.1
2023-02-07T13:20:00.610Z,4.4
2023-02-07T13:30:00.569Z,4.0
2023-02-07T13:40:00.620Z,3.4
2023-02-07T13:50:00.813Z,3.3
2023-02-07T14:00:01.041Z,3.0
2023-02-07T14:10:00.701Z,2.3
2023-02-07T14:20:00.994Z,1.8
2023-02-07T14:30:01.386Z,1.4
2023-02-07T14:40:01.462Z,1.0
2023-02-07T14:50:01.300Z,0.4
2023-02-07T15:00:01.072Z,-0.3
2023-02-07T15:10:00.665Z,-0.7
2023-02-07T15:20:00.910Z,-1.1
2023-02-07T15:30:00.643Z,-1.4
2023-02-07T15:40:00.634Z,-1.9
2023-02-07T15:50:00.571Z,-2.2
2023-02-07T16:00:00.626Z,-2.5
2023-02-07T16:10:01.374Z,-2.9
2023-02-07T16:20:00.700Z,-3.1
2023-02-07T16:30:00.624Z,-3.4
2023-02-07T16:40:00.569Z,-3.8
2023-02-07T16:50:00.702Z,-4.2
2023-02-07T17:00:00.904Z,-4.3
2023-02-07T17:10:00.725Z,-4.5
2023-02-07T17:20:00.746Z,-4.8
2023-02-07T17:30:00.874Z,-5.2
2023-02-07T17:40:01.038Z,-5.3
2023-02-07T17:50:00.656Z,-5.5
2023-02-07T18:00:00.622Z,-5.4
2023-02-07T18:10:00.628Z,-5.6
2023-02-07T18:20:00.579Z,-5.7
2023-02-07T18:30:00.547Z,-5.7
2023-02-07T18:40:00.753Z,-5.6
2023-02-07T18:50:00.741Z,-5.8
2023-02-07T19:00:00.737Z,-5.5
2023-02-07T19:10:00.553Z,-5.8
2023-02-07T19:20:00.581Z,-6.1
2023-02-07T19:30:00.943Z,-6.2
2023-02-07T19:40:00.600Z,-6.2
2023-02-07T19:50:00.672Z,-6.3
2023-02-07T20:00:00.606Z,-6.4
2023-02-07T20:10:00.602Z,-6.1
2023-02-07T20:20:00.549Z,-6.1
2023-02-07T20:30:00.573Z,-6.2
2023-02-07T20:40:00.589Z,-6.3
2023-02-07T20:50:00.542Z,-6.3
2023-02-07T21:00:01.062Z,-6.5
2023-02-07T21:10:00.789Z,-6.5
2023-02-07T21:20:00.709Z,-6.6
2023-02-07T21:30:00.843Z,-6.7
2023-02-07T21:40:01.007Z,-6.7
2023-02-07T21:50:00.818Z,-6.7
2023-02-07T22:00:01.168Z,-6.7
2023-02-07T22:10:00.929Z,-6.8
2023-02-07T22:20:00.648Z,-7.1
2023-02-07T22:30:00.597Z,-7.3
2023-02-07T22:40:00.568Z,-7.5
2023-02-07T22:50:00.538Z,-7.5
2023-02-07T23:00:00.585Z,-7.6
2023-02-07T23:10:00.558Z,-7.5
2023-02-07T23:20:00.552Z,-7.4
2023-02-07T23:30:00.541Z,-7.1
2023-02-07T23:40:00.732Z,-6.6
2023-02-07T23:50:00.909Z,-5.9
